Time;durP1;ratioP1;P1;durP2;ratioP2;P2;SDS_P1;SDS_P2;PMS_P1;PMS_P2;Temp;Humidity;BMP_temperature;BMP_pressure;BME280_temperature;BME280_humidity;BME280_pressure;Samples;Min_cycle;Max_cycle;Signal;HPM_P1;HPM_P2
2022/11/05 00:17:26;;;;;;;;;;;;;;;;;;10399688;28;19917;-80
2022/11/05 00:27:47;;;;;;;;;;;;;;;;;;10426912;28;19921;-82
2022/11/05 00:32:47;;;;;;;;;;;;;;;;;;10385090;28;20016;-79
2022/11/05 00:37:48;;;;;;;;;;;;;;;;;;10397527;28;19924;-79
2022/11/05 00:53:26;;;;;;;;;;;;;;;;;;10399361;28;20067;-80
2022/11/05 00:58:27;;;;;;;;;;;;;;;;;;10386628;28;20007;-78
2022/11/05 01:03:28;;;;;;;;;;;;;;;;;;10392459;28;19929;-80
2022/11/05 01:08:28;;;;;;;;;;;;;;;;;;10383042;28;19925;-81
2022/11/05 01:13:28;;;;;;;;;;;;;;;;;;10371574;28;19925;-80
2022/11/05 01:18:29;;;;;;;;;;;;;;;;;;10365831;28;19921;-81
2022/11/05 01:23:29;;;;;;;;;;;;;;;;;;10385877;28;19936;-80
2022/11/05 01:28:29;;;;;;;;;;;;;;;;;;10371237;28;19925;-80
2022/11/05 01:33:29;;;;;;;;;;;;;;;;;;10374497;28;19926;-80
2022/11/05 01:38:29;;;;;;;;;;;;;;;;;;10384505;28;19921;-80
2022/11/05 01:43:30;;;;;;;;;;;;;;;;;;10379446;28;19925;-80
2022/11/05 01:48:30;;;;;;;;;;;;;;;;;;10383205;28;19921;-79
2022/11/05 01:53:30;;;;;;;;;;;;;;;;;;10379595;28;19922;-78
2022/11/05 01:58:31;;;;;;;;;;;;;;;;;;10379802;28;19921;-80
2022/11/05 02:03:31;;;;;;;;;;;;;;;;;;10373175;28;19975;-80
2022/11/05 02:08:31;;;;;;;;;;;;;;;;;;10379023;28;19932;-79
2022/11/05 02:13:31;;;;;;;;;;;;;;;;;;10381300;28;19926;-78
2022/11/05 02:18:31;;;;;;;;;;;;;;;;;;10376242;28;19928;-80
2022/11/05 02:23:32;;;;;;;;;;;;;;;;;;10393192;28;19930;-78
2022/11/05 02:28:32;;;;;;;;;;;;;;;;;;10405784;28;19968;-78
2022/11/05 02:33:32;;;;;;;;;;;;;;;;;;10404755;28;19921;-79
2022/11/05 02:38:32;;;;;;;;;;;;;;;;;;10426952;28;19921;-79
2022/11/05 02:43:33;;;;;;;;;;;;;;;;;;10417040;28;19913;-82
2022/11/05 02:48:33;;;;;;;;;;;;;;;;;;10440415;28;19949;-79
2022/11/05 02:53:33;;;;;;;;;;;;;;;;;;10405533;28;19928;-80
2022/11/05 02:58:35;;;;;;;;;;;;;;;;;;10401788;28;20004;-80
2022/11/05 03:03:35;;;;;;;;;;;;;;;;;;10393760;28;20352;-79
2022/11/05 03:08:35;;;;;;;;;;;;;;;;;;10394001;28;19921;-80
2022/11/05 03:13:35;;;;;;;;;;;;;;;;;;10372043;28;19921;-80
2022/11/05 03:18:36;;;;;;;;;;;;;;;;;;10387806;28;20514;-80
2022/11/05 03:23:36;;;;;;;;;;;;;;;;;;10382096;28;19925;-79
2022/11/05 03:28:36;;;;;;;;;;;;;;;;;;10379255;28;19918;-79
2022/11/05 03:33:36;;;;;;;;;;;;;;;;;;10339721;28;19926;-80
2022/11/05 03:38:37;;;;;;;;;;;;;;;;;;10373330;28;19925;-80
2022/11/05 03:43:37;;;;;;;;;;;;;;;;;;10343940;28;19937;-81
2022/11/05 03:48:40;;;;;;;;;;;;;;;;;;10349757;28;19921;-80
2022/11/05 03:53:41;;;;;;;;;;;;;;;;;;10348192;28;19924;-80
2022/11/05 03:58:41;;;;;;;;;;;;;;;;;;10346518;28;19917;-80
2022/11/05 04:03:41;;;;;;;;;;;;;;;;;;10340074;28;20061;-80
2022/11/05 04:14:00;;;;;;;;;;;;;;;;;;10352487;28;19991;-80
2022/11/05 04:19:01;;;;;;;;;;;;;;;;;;10328854;28;20429;-80
2022/11/05 04:24:07;;;;;;;;;;;;;;;;;;10339099;28;19929;-80
2022/11/05 04:34:26;;;;;;;;;;;;;;;;;;10347599;28;19917;-79
2022/11/05 04:39:26;;;;;;;;;;;;;;;;;;10346269;28;19918;-82
2022/11/05 04:44:27;;;;;;;;;;;;;;;;;;10343728;28;19926;-83
2022/11/05 04:49:27;;;;;;;;;;;;;;;;;;10400355;28;19901;-80
2022/11/05 04:54:27;;;;;;;;;;;;;;;;;;10375011;28;20495;-76
2022/11/05 04:59:27;;;;;;;;;;;;;;;;;;10345782;28;20645;-80
2022/11/05 05:04:28;;;;;;;;;;;;;;;;;;10332764;28;19922;-78
2022/11/05 05:09:28;;;;;;;;;;;;;;;;;;10346877;28;19921;-80
2022/11/05 05:14:28;;;;;;;;;;;;;;;;;;10337062;28;20401;-81
2022/11/05 05:19:30;;;;;;;;;;;;;;;;;;10331786;28;20019;-79
2022/11/05 05:24:30;;;;;;;;;;;;;;;;;;10337900;28;19951;-80
2022/11/05 05:29:30;;;;;;;;;;;;;;;;;;10359422;28;19933;-80
2022/11/05 05:34:30;;;;;;;;;;;;;;;;;;10350853;28;19929;-80
2022/11/05 05:39:31;;;;;;;;;;;;;;;;;;10372773;28;19963;-79
2022/11/05 05:44:31;;;;;;;;;;;;;;;;;;10375530;28;20309;-79
2022/11/05 05:49:31;;;;;;;;;;;;;;;;;;10373344;28;19922;-80
2022/11/05 05:54:31;;;;;;;;;;;;;;;;;;10341944;28;19925;-80
2022/11/05 05:59:32;;;;;;;;;;;;;;;;;;10353040;28;19921;-80
2022/11/05 06:04:32;;;;;;;;;;;;;;;;;;10354317;28;19999;-82
2022/11/05 06:09:32;;;;;;;;;;;;;;;;;;10352434;28;19921;-82
2022/11/05 06:14:32;;;;;;;;;;;;;;;;;;10355180;28;19924;-82
2022/11/05 06:19:33;;;;;;;;;;;;;;;;;;10352933;28;19996;-79
2022/11/05 06:24:33;;;;;;;;;;;;;;;;;;10353513;28;19926;-80
2022/11/05 06:29:33;;;;;;;;;;;;;;;;;;10360644;28;20024;-80
2022/11/05 06:34:35;;;;;;;;;;;;;;;;;;10363295;28;19929;-80
2022/11/05 06:39:35;;;;;;;;;;;;;;;;;;10358763;28;19925;-82
2022/11/05 06:44:36;;;;;;;;;;;;;;;;;;10340962;28;19980;-81
2022/11/05 06:49:36;;;;;;;;;;;;;;;;;;10354736;28;19921;-79
2022/11/05 06:54:36;;;;;;;;;;;;;;;;;;10335541;28;19918;-81
2022/11/05 06:59:36;;;;;;;;;;;;;;;;;;10355737;28;19921;-79
2022/11/05 07:04:37;;;;;;;;;;;;;;;;;;10357508;28;20277;-81
2022/11/05 07:09:39;;;;;;;;;;;;;;;;;;10358268;28;19905;-80
2022/11/05 07:14:40;;;;;;;;;;;;;;;;;;10400863;28;19949;-78
2022/11/05 07:19:41;;;;;;;;;;;;;;;;;;10393250;28;19924;-79
2022/11/05 07:24:42;;;;;;;;;;;;;;;;;;10352585;28;19947;-78
2022/11/05 07:29:42;;;;;;;;;;;;;;;;;;10351878;28;19928;-79
2022/11/05 07:34:43;;;;;;;;;;;;;;;;;;10342793;28;19921;-80
2022/11/05 07:39:43;;;;;;;;;;;;;;;;;;10346616;28;19948;-80
2022/11/05 07:44:43;;;;;;;;;;;;;;;;;;10342248;28;19922;-80
2022/11/05 07:49:43;;;;;;;;;;;;;;;;;;10355029;28;19948;-79
2022/11/05 07:54:44;;;;;;;;;;;;;;;;;;10348499;28;19922;-79
2022/11/05 07:59:44;;;;;;;;;;;;;;;;;;10352914;28;19917;-80
2022/11/05 08:04:45;;;;;;;;;;;;;;;;;;10325759;28;19931;-81
2022/11/05 08:09:45;;;;;;;;;;;;;;;;;;10339293;28;19987;-79
2022/11/05 08:14:45;;;;;;;;;;;;;;;;;;10347239;28;20351;-77
2022/11/05 08:19:45;;;;;;;;;;;;;;;;;;10336550;28;20390;-81
2022/11/05 08:24:46;;;;;;;;;;;;;;;;;;10349833;28;19921;-78
2022/11/05 08:29:46;;;;;;;;;;;;;;;;;;10341327;28;19937;-79
2022/11/05 08:34:46;;;;;;;;;;;;;;;;;;10380841;28;19921;-79
2022/11/05 08:39:46;;;;;;;;;;;;;;;;;;10390643;28;19929;-78
2022/11/05 08:44:47;;;;;;;;;;;;;;;;;;10356585;28;20284;-80
2022/11/05 08:49:47;;;;;;;;;;;;;;;;;;10340352;28;19921;-81
2022/11/05 08:54:47;;;;;;;;;;;;;;;;;;10342506;28;20008;-82
2022/11/05 08:59:47;;;;;;;;;;;;;;;;;;10355672;28;19945;-84
2022/11/05 09:04:48;;;;;;;;;;;;;;;;;;10339875;28;19975;-81
2022/11/05 09:09:48;;;;;;;;;;;;;;;;;;10367198;28;19929;-81
2022/11/05 09:14:50;;;;;;;;;;;;;;;;;;10358094;28;19913;-81
2022/11/05 09:19:50;;;;;;;;;;;;;;;;;;10344972;28;19980;-81
2022/11/05 09:24:50;;;;;;;;;;;;;;;;;;10351664;28;19917;-81
2022/11/05 09:29:50;;;;;;;;;;;;;;;;;;10350431;28;20056;-79
2022/11/05 09:34:51;;;;;;;;;;;;;;;;;;10396549;28;19921;-78
2022/11/05 09:39:51;;;;;;;;;;;;;;;;;;10413234;28;19970;-78
2022/11/05 09:44:51;;;;;;;;;;;;;;;;;;10369510;28;20325;-82
2022/11/05 09:49:51;;;;;;;;;;;;;;;;;;10350304;28;19971;-81
2022/11/05 09:54:53;;;;;;;;;;;;;;;;;;10356187;28;19917;-81
2022/11/05 09:59:53;;;;;;;;;;;;;;;;;;10375938;28;20378;-83
2022/11/05 10:04:53;;;;;;;;;;;;;;;;;;10385896;28;19926;-80
2022/11/05 10:09:53;;;;;;;;;;;;;;;;;;10380908;28;20004;-83
2022/11/05 10:14:54;;;;;;;;;;;;;;;;;;10373661;28;19926;-81
2022/11/05 10:19:54;;;;;;;;;;;;;;;;;;10364320;28;19922;-85
2022/11/05 10:24:54;;;;;;;;;;;;;;;;;;10383343;28;20227;-80
2022/11/05 10:29:54;;;;;;;;;;;;;;;;;;10363325;28;19941;-82
2022/11/05 10:34:55;;;;;;;;;;;;;;;;;;10368926;28;19981;-81
2022/11/05 10:39:55;;;;;;;;;;;;;;;;;;10358079;28;19926;-80
2022/11/05 10:44:55;;;;;;;;;;;;;;;;;;10374097;28;19940;-80
2022/11/05 10:49:56;;;;;;;;;;;;;;;;;;10357638;28;19929;-82
2022/11/05 10:54:57;;;;;;;;;;;;;;;;;;10371580;28;19925;-82
2022/11/05 10:59:57;;;;;;;;;;;;;;;;;;10372638;28;20057;-81
2022/11/05 11:04:57;;;;;;;;;;;;;;;;;;10346669;28;20443;-79
2022/11/05 11:09:57;;;;;;;;;;;;;;;;;;10350544;28;20431;-80
2022/11/05 11:14:58;;;;;;;;;;;;;;;;;;10352852;28;19948;-80
2022/11/05 11:19:58;;;;;;;;;;;;;;;;;;10343284;28;20377;-81
2022/11/05 11:24:58;;;;;;;;;;;;;;;;;;10365926;28;19925;-81
2022/11/05 11:30:01;;;;;;;;;;;;;;;;;;10361858;28;20263;-80
2022/11/05 11:35:02;;;;;;;;;;;;;;;;;;10386961;28;19921;-80
2022/11/05 11:40:03;;;;;;;;;;;;;;;;;;10357717;28;19968;-83
2022/11/05 11:45:03;;;;;;;;;;;;;;;;;;10359900;28;19925;-80
2022/11/05 11:50:03;;;;;;;;;;;;;;;;;;10353200;28;19929;-79
2022/11/05 11:55:03;;;;;;;;;;;;;;;;;;10363519;28;19941;-77
2022/11/05 12:00:04;;;;;;;;;;;;;;;;;;10407839;28;19968;-77
2022/11/05 12:05:09;;;;;;;;;;;;;;;;;;10396252;28;19925;-80
2022/11/05 12:10:11;;;;;;;;;;;;;;;;;;10356013;28;19921;-79
2022/11/05 12:15:11;;;;;;;;;;;;;;;;;;10358779;28;19921;-79
2022/11/05 12:20:11;;;;;;;;;;;;;;;;;;10394651;28;19909;-78
2022/11/05 12:25:12;;;;;;;;;;;;;;;;;;10398361;28;19909;-81
2022/11/05 12:30:12;;;;;;;;;;;;;;;;;;10394842;28;20273;-81
2022/11/05 12:35:12;;;;;;;;;;;;;;;;;;10352019;28;20336;-80
2022/11/05 12:40:12;;;;;;;;;;;;;;;;;;10354261;28;20017;-81
2022/11/05 12:45:13;;;;;;;;;;;;;;;;;;10326560;28;19925;-80
2022/11/05 12:50:14;;;;;;;;;;;;;;;;;;10347902;28;20040;-79
2022/11/05 12:55:14;;;;;;;;;;;;;;;;;;10338565;28;19921;-79
2022/11/05 13:00:14;;;;;;;;;;;;;;;;;;10358135;28;19951;-80
2022/11/05 13:05:18;;;;;;;;;;;;;;;;;;10359179;28;20476;-79
2022/11/05 13:10:19;;;;;;;;;;;;;;;;;;10359228;28;19921;-78
2022/11/05 13:15:19;;;;;;;;;;;;;;;;;;10346964;28;19961;-79
2022/11/05 13:20:20;;;;;;;;;;;;;;;;;;10343283;28;19928;-79
2022/11/05 13:25:20;;;;;;;;;;;;;;;;;;10351508;28;20333;-81
2022/11/05 13:30:20;;;;;;;;;;;;;;;;;;10338543;28;19945;-79
2022/11/05 13:35:20;;;;;;;;;;;;;;;;;;10330323;28;19976;-79
2022/11/05 13:40:21;;;;;;;;;;;;;;;;;;10344339;28;19929;-77
2022/11/05 13:45:21;;;;;;;;;;;;;;;;;;10336688;28;19926;-78
2022/11/05 13:50:22;;;;;;;;;;;;;;;;;;10337431;28;19922;-78
2022/11/05 13:55:22;;;;;;;;;;;;;;;;;;10346094;28;20008;-79
2022/11/05 14:00:22;;;;;;;;;;;;;;;;;;10342497;28;19976;-79
2022/11/05 14:05:23;;;;;;;;;;;;;;;;;;10331888;28;20401;-78
2022/11/05 14:10:23;;;;;;;;;;;;;;;;;;10338121;28;20000;-77
2022/11/05 14:15:25;;;;;;;;;;;;;;;;;;10332049;28;19921;-82
2022/11/05 14:20:25;;;;;;;;;;;;;;;;;;10376614;28;19910;-79
2022/11/05 14:25:25;;;;;;;;;;;;;;;;;;10388541;28;19973;-78
2022/11/05 14:30:26;;;;;;;;;;;;;;;;;;10358411;28;19928;-77
2022/11/05 14:35:26;;;;;;;;;;;;;;;;;;10347398;28;19982;-78
2022/11/05 14:40:26;;;;;;;;;;;;;;;;;;10342210;28;20416;-78
2022/11/05 14:45:26;;;;;;;;;;;;;;;;;;10370002;28;20390;-79
2022/11/05 14:50:28;;;;;;;;;;;;;;;;;;10370424;28;19929;-77
2022/11/05 14:55:28;;;;;;;;;;;;;;;;;;10375235;28;19929;-78
2022/11/05 15:00:30;;;;;;;;;;;;;;;;;;10335891;28;20406;-79
2022/11/05 15:05:35;;;;;;;;;;;;;;;;;;10364327;28;19933;-78
2022/11/05 15:10:36;;;;;;;;;;;;;;;;;;10346460;28;19948;-79
2022/11/05 15:15:36;;;;;;;;;;;;;;;;;;10346592;28;19941;-78
2022/11/05 15:20:36;;;;;;;;;;;;;;;;;;10342256;28;20059;-80
2022/11/05 15:25:37;;;;;;;;;;;;;;;;;;10329819;28;19925;-79
2022/11/05 15:30:37;;;;;;;;;;;;;;;;;;10336964;28;20008;-79
2022/11/05 15:35:38;;;;;;;;;;;;;;;;;;10357264;28;19956;-77
2022/11/05 15:40:38;;;;;;;;;;;;;;;;;;10354298;28;19922;-77
2022/11/05 15:45:39;;;;;;;;;;;;;;;;;;10347549;28;20317;-78
2022/11/05 15:50:40;;;;;;;;;;;;;;;;;;10357617;28;19984;-78
2022/11/05 15:55:40;;;;;;;;;;;;;;;;;;10326419;28;20250;-79
2022/11/05 16:00:40;;;;;;;;;;;;;;;;;;10343740;28;20389;-77
2022/11/05 16:05:41;;;;;;;;;;;;;;;;;;10343357;28;19925;-79
2022/11/05 16:10:44;;;;;;;;;;;;;;;;;;10331809;28;19964;-78
2022/11/05 16:15:44;;;;;;;;;;;;;;;;;;10345069;28;20028;-79
2022/11/05 16:20:44;;;;;;;;;;;;;;;;;;10328288;28;20369;-81
2022/11/05 16:25:46;;;;;;;;;;;;;;;;;;10339343;28;20499;-80
2022/11/05 16:30:46;;;;;;;;;;;;;;;;;;10342756;28;19929;-81
2022/11/05 16:35:46;;;;;;;;;;;;;;;;;;10346586;28;20411;-80
2022/11/05 16:40:46;;;;;;;;;;;;;;;;;;10365974;28;19917;-78
2022/11/05 16:45:47;;;;;;;;;;;;;;;;;;10394854;28;19910;-78
2022/11/05 16:50:47;;;;;;;;;;;;;;;;;;10385497;28;19917;-79
2022/11/05 16:55:47;;;;;;;;;;;;;;;;;;10349579;28;19918;-82
2022/11/05 17:00:47;;;;;;;;;;;;;;;;;;10345109;28;19932;-80
2022/11/05 17:05:48;;;;;;;;;;;;;;;;;;10346188;28;19926;-80
2022/11/05 17:10:49;;;;;;;;;;;;;;;;;;10362404;28;19922;-82
2022/11/05 17:15:49;;;;;;;;;;;;;;;;;;10374994;28;20016;-80
2022/11/05 17:20:50;;;;;;;;;;;;;;;;;;10363154;28;19926;-82
2022/11/05 17:25:50;;;;;;;;;;;;;;;;;;10384790;28;19975;-81
2022/11/05 17:30:50;;;;;;;;;;;;;;;;;;10393989;28;19909;-80
2022/11/05 17:35:51;;;;;;;;;;;;;;;;;;10381933;28;19924;-80
2022/11/05 17:40:51;;;;;;;;;;;;;;;;;;10342908;28;19932;-82
2022/11/05 17:45:53;;;;;;;;;;;;;;;;;;10348772;28;19932;-81
2022/11/05 17:50:55;;;;;;;;;;;;;;;;;;10360026;28;19928;-81
2022/11/05 17:55:55;;;;;;;;;;;;;;;;;;10372577;28;19922;-80
2022/11/05 18:00:56;;;;;;;;;;;;;;;;;;10371088;28;19921;-81
2022/11/05 18:05:56;;;;;;;;;;;;;;;;;;10372019;28;19926;-78
2022/11/05 18:10:56;;;;;;;;;;;;;;;;;;10386790;28;20021;-79
2022/11/05 18:15:56;;;;;;;;;;;;;;;;;;10391904;28;19928;-82
2022/11/05 18:20:57;;;;;;;;;;;;;;;;;;10347451;28;19960;-78
2022/11/05 18:25:57;;;;;;;;;;;;;;;;;;10346359;28;19926;-80
2022/11/05 18:30:57;;;;;;;;;;;;;;;;;;10350499;28;20384;-80
2022/11/05 18:35:58;;;;;;;;;;;;;;;;;;10345961;28;19922;-80
2022/11/05 18:40:58;;;;;;;;;;;;;;;;;;10348830;28;19936;-79
2022/11/05 18:45:58;;;;;;;;;;;;;;;;;;10346111;28;19921;-78
2022/11/05 18:50:58;;;;;;;;;;;;;;;;;;10348624;28;19968;-77
2022/11/05 18:55:59;;;;;;;;;;;;;;;;;;10339496;28;19921;-81
2022/11/05 19:00:59;;;;;;;;;;;;;;;;;;10348002;28;19930;-79
2022/11/05 19:05:59;;;;;;;;;;;;;;;;;;10378454;28;19921;-74
2022/11/05 19:10:59;;;;;;;;;;;;;;;;;;10370425;28;19906;-81
2022/11/05 19:16:00;;;;;;;;;;;;;;;;;;10402155;28;19937;-79
2022/11/05 19:21:00;;;;;;;;;;;;;;;;;;10392383;28;19933;-79
2022/11/05 19:26:00;;;;;;;;;;;;;;;;;;10368221;28;19953;-79
2022/11/05 19:31:00;;;;;;;;;;;;;;;;;;10335437;28;19922;-82
2022/11/05 19:36:01;;;;;;;;;;;;;;;;;;10349506;28;19976;-79
2022/11/05 19:41:01;;;;;;;;;;;;;;;;;;10345536;28;19937;-79
2022/11/05 19:46:01;;;;;;;;;;;;;;;;;;10339780;28;19929;-79
2022/11/05 19:51:02;;;;;;;;;;;;;;;;;;10358162;28;20388;-79
2022/11/05 19:56:02;;;;;;;;;;;;;;;;;;10334692;28;19924;-80
2022/11/05 20:01:03;;;;;;;;;;;;;;;;;;10359696;28;19933;-79
2022/11/05 20:06:03;;;;;;;;;;;;;;;;;;10344954;28;19921;-80
2022/11/05 20:11:03;;;;;;;;;;;;;;;;;;10364964;28;19922;-81
2022/11/05 20:16:03;;;;;;;;;;;;;;;;;;10346287;28;19925;-78
2022/11/05 20:21:04;;;;;;;;;;;;;;;;;;10362166;28;20373;-81
2022/11/05 20:26:04;;;;;;;;;;;;;;;;;;10345321;28;19926;-78
2022/11/05 20:31:04;;;;;;;;;;;;;;;;;;10364974;28;19936;-80
2022/11/05 20:36:04;;;;;;;;;;;;;;;;;;10355412;28;19925;-80
2022/11/05 20:41:05;;;;;;;;;;;;;;;;;;10345430;28;19988;-82
2022/11/05 20:46:05;;;;;;;;;;;;;;;;;;10355279;28;19921;-79
2022/11/05 20:51:05;;;;;;;;;;;;;;;;;;10350080;28;19924;-78
2022/11/05 20:56:08;;;;;;;;;;;;;;;;;;10340151;28;19924;-78
2022/11/05 21:01:09;;;;;;;;;;;;;;;;;;10343667;28;19932;-77
2022/11/05 21:06:09;;;;;;;;;;;;;;;;;;10335875;28;19926;-81
2022/11/05 21:11:09;;;;;;;;;;;;;;;;;;10338903;28;19921;-78
2022/11/05 21:16:09;;;;;;;;;;;;;;;;;;10350041;28;20094;-78
2022/11/05 21:21:10;;;;;;;;;;;;;;;;;;10331623;28;19933;-78
2022/11/05 21:26:10;;;;;;;;;;;;;;;;;;10345035;28;19925;-79
2022/11/05 21:31:10;;;;;;;;;;;;;;;;;;10341596;28;19925;-78
2022/11/05 21:36:12;;;;;;;;;;;;;;;;;;10341502;28;19929;-77
2022/11/05 21:41:12;;;;;;;;;;;;;;;;;;10341328;28;20401;-78
2022/11/05 21:46:14;;;;;;;;;;;;;;;;;;10339654;28;19921;-77
2022/11/05 22:01:59;;;;;;;;;;;;;;;;;;10390898;28;19926;-77
2022/11/05 22:07:00;;;;;;;;;;;;;;;;;;10387961;28;19981;-77
2022/11/05 22:12:00;;;;;;;;;;;;;;;;;;10346887;28;20658;-79
2022/11/05 22:17:00;;;;;;;;;;;;;;;;;;10357690;28;20370;-77
2022/11/05 22:22:00;;;;;;;;;;;;;;;;;;10337776;28;20012;-77
2022/11/05 22:27:01;;;;;;;;;;;;;;;;;;10356339;28;19926;-77
2022/11/05 22:32:01;;;;;;;;;;;;;;;;;;10343084;28;19933;-79
2022/11/05 22:37:01;;;;;;;;;;;;;;;;;;10357860;28;19922;-78
2022/11/05 22:42:01;;;;;;;;;;;;;;;;;;10353171;28;19930;-78
2022/11/05 22:47:02;;;;;;;;;;;;;;;;;;10353603;28;19921;-78
2022/11/05 22:52:03;;;;;;;;;;;;;;;;;;10359582;28;19940;-78
2022/11/05 22:57:04;;;;;;;;;;;;;;;;;;10350024;28;19928;-76
2022/11/05 23:02:04;;;;;;;;;;;;;;;;;;10356248;28;19934;-77
2022/11/05 23:12:23;;;;;;;;;;;;;;;;;;10359453;28;19925;-76
2022/11/05 23:28:01;;;;;;;;;;;;;;;;;;10353771;28;19922;-78
2022/11/05 23:33:01;;;;;;;;;;;;;;;;;;10345752;28;19926;-77
2022/11/05 23:48:40;;;;;;;;;;;;;;;;;;10341985;28;19980;-77
2022/11/05 23:53:40;;;;;;;;;;;;;;;;;;10357900;28;19993;-75
2022/11/05 23:58:40;;;;;;;;;;;;;;;;;;10346636;28;19956;-76
